createdAt,value
2023-05-12T00:00:25.644Z,67.4247
2023-05-12T00:01:26.699Z,67.4961
2023-05-12T00:02:28.432Z,67.4444
2023-05-12T00:03:30.589Z,67.2260
2023-05-12T00:04:31.727Z,67.0362
2023-05-12T00:05:33.269Z,67.1094
2023-05-12T00:06:34.935Z,67.4009
2023-05-12T00:07:36.614Z,67.5608
2023-05-12T00:08:38.237Z,67.5399
2023-05-12T00:09:39.888Z,67.4650
2023-05-12T00:10:41.494Z,67.3165
2023-05-12T00:11:43.163Z,67.1046
2023-05-12T00:12:44.790Z,66.9440
2023-05-12T00:13:46.684Z,66.9598
2023-05-12T00:14:48.238Z,67.0668
2023-05-12T00:15:49.873Z,67.2841
2023-05-12T00:16:51.734Z,67.5232
2023-05-12T00:17:53.274Z,67.5943
2023-05-12T00:18:54.855Z,67.6055
2023-05-12T00:19:56.915Z,67.6123
2023-05-12T00:20:58.983Z,67.4566
2023-05-12T00:21:59.748Z,67.2447
2023-05-12T00:23:01.343Z,67.1114
2023-05-12T00:24:03.094Z,67.1646
2023-05-12T00:25:04.702Z,67.3098
2023-05-12T00:26:06.311Z,67.4888
2023-05-12T00:27:07.905Z,67.6757
2023-05-12T00:28:09.698Z,67.8075
2023-05-12T00:29:11.318Z,67.7797
2023-05-12T00:30:12.939Z,67.7495
2023-05-12T00:31:14.551Z,67.5859
2023-05-12T00:32:16.199Z,67.4395
2023-05-12T00:33:17.835Z,67.3348
2023-05-12T00:34:19.593Z,67.3326
2023-05-12T00:35:21.086Z,67.4809
2023-05-12T00:36:22.806Z,67.5828
2023-05-12T00:37:24.406Z,67.6646
2023-05-12T00:38:26.057Z,67.6672
2023-05-12T00:39:27.796Z,67.5771
2023-05-12T00:40:29.398Z,67.4617
2023-05-12T00:41:30.999Z,67.2488
2023-05-12T00:42:32.725Z,67.4513
2023-05-12T00:43:34.329Z,67.6498
2023-05-12T00:44:36.000Z,67.6903
2023-05-12T00:45:37.718Z,67.7339
2023-05-12T00:46:39.240Z,67.7070
2023-05-12T00:47:40.917Z,67.5699
2023-05-12T00:48:42.570Z,67.4048
2023-05-12T00:49:44.284Z,67.2841
2023-05-12T00:50:45.901Z,67.3658
2023-05-12T00:51:47.513Z,67.5873
2023-05-12T00:52:49.189Z,67.7617
2023-05-12T00:53:50.933Z,67.7758
2023-05-12T00:54:52.606Z,67.7877
2023-05-12T00:55:54.161Z,67.7753
2023-05-12T00:56:55.930Z,67.6158
2023-05-12T00:57:57.482Z,67.4580
2023-05-12T00:58:59.133Z,67.2363
2023-05-12T01:00:00.862Z,67.2998
2023-05-12T01:01:02.468Z,67.5517
2023-05-12T01:02:04.061Z,67.8036
2023-05-12T01:03:05.923Z,67.8938
2023-05-12T01:04:07.372Z,67.8704
2023-05-12T01:05:09.088Z,67.8684
2023-05-12T01:06:10.641Z,67.9144
2023-05-12T01:07:12.336Z,67.8807
2023-05-12T01:08:13.925Z,67.8168
2023-05-12T01:09:15.622Z,67.7950
2023-05-12T01:10:17.373Z,67.7152
2023-05-12T01:11:18.897Z,67.8522
2023-05-12T01:12:20.505Z,68.0148
2023-05-12T01:13:22.218Z,68.0980
2023-05-12T01:14:23.938Z,68.0986
2023-05-12T01:15:25.645Z,68.0566
2023-05-12T01:16:27.123Z,67.9195
2023-05-12T01:17:28.897Z,67.8543
2023-05-12T01:18:30.566Z,67.7525
2023-05-12T01:19:32.172Z,67.8151
2023-05-12T01:20:33.730Z,67.9402
2023-05-12T01:21:35.482Z,68.0087
2023-05-12T01:22:37.909Z,68.0037
2023-05-12T01:23:38.712Z,67.9998
2023-05-12T01:24:40.399Z,67.9510
2023-05-12T01:25:42.049Z,67.9125
2023-05-12T01:26:43.675Z,67.9423
2023-05-12T01:27:45.396Z,68.0488
2023-05-12T01:28:46.960Z,68.0647
2023-05-12T01:29:48.665Z,68.0604
2023-05-12T01:30:50.366Z,68.0240
2023-05-12T01:31:51.902Z,67.9927
2023-05-12T01:32:53.571Z,68.0402
2023-05-12T01:33:55.189Z,68.0894
2023-05-12T01:34:56.854Z,68.1711
2023-05-12T01:35:58.562Z,68.1560
2023-05-12T01:37:00.164Z,68.0729
2023-05-12T01:38:02.138Z,67.9843
2023-05-12T01:39:03.455Z,68.0346
2023-05-12T01:40:05.071Z,68.0915
2023-05-12T01:41:06.788Z,68.1093
2023-05-12T01:42:08.444Z,68.0573
2023-05-12T01:43:10.070Z,68.0585
2023-05-12T01:44:11.699Z,68.0294
2023-05-12T01:45:13.358Z,68.0254
2023-05-12T01:46:15.503Z,68.0989
2023-05-12T01:47:16.713Z,68.1487
2023-05-12T01:48:18.272Z,68.1431
2023-05-12T01:49:19.950Z,68.1095
2023-05-12T01:50:21.800Z,68.0975
2023-05-12T01:51:23.346Z,67.9695
2023-05-12T01:52:24.907Z,67.8973
2023-05-12T01:53:26.615Z,68.0116
2023-05-12T01:54:28.184Z,68.0877
2023-05-12T01:55:29.846Z,68.1296
2023-05-12T01:56:32.480Z,68.1667
2023-05-12T01:57:33.130Z,68.0768
2023-05-12T01:58:34.804Z,68.0162
2023-05-12T01:59:36.398Z,68.0808
2023-05-12T02:00:38.172Z,68.1406
2023-05-12T02:01:39.750Z,68.1768
2023-05-12T02:02:43.071Z,68.2430
2023-05-12T02:03:43.166Z,68.1341
2023-05-12T02:04:44.750Z,68.0801
2023-05-12T02:05:46.275Z,68.1929
2023-05-12T02:06:47.996Z,68.2622
2023-05-12T02:07:49.627Z,68.2570
2023-05-12T02:08:51.967Z,68.1959
2023-05-12T02:09:52.859Z,68.1724
2023-05-12T02:10:54.553Z,68.1985
2023-05-12T02:11:56.282Z,68.1879
2023-05-12T02:12:57.912Z,68.2951
2023-05-12T02:13:59.462Z,68.3143
2023-05-12T02:15:01.231Z,68.2545
2023-05-12T02:16:02.898Z,68.2166
2023-05-12T02:17:04.548Z,68.1532
2023-05-12T02:18:06.175Z,68.0283
2023-05-12T02:19:07.805Z,67.9568
2023-05-12T02:20:09.397Z,68.0901
2023-05-12T02:21:11.037Z,68.1802
2023-05-12T02:22:12.689Z,68.1177
2023-05-12T02:23:14.347Z,68.0785
2023-05-12T02:24:15.918Z,68.1154
2023-05-12T02:25:17.606Z,68.0792
2023-05-12T02:26:19.194Z,68.0109
2023-05-12T02:27:20.938Z,68.0646
2023-05-12T02:28:22.567Z,68.1428
2023-05-12T02:29:24.239Z,68.3124
2023-05-12T02:30:25.823Z,68.3496
2023-05-12T02:31:27.605Z,68.2735
2023-05-12T02:32:29.505Z,68.2039
2023-05-12T02:33:30.819Z,68.2625
2023-05-12T02:34:32.475Z,68.1293
2023-05-12T02:35:34.096Z,68.1698
2023-05-12T02:36:35.727Z,68.2189
2023-05-12T02:37:37.505Z,68.3688
2023-05-12T02:38:39.001Z,68.2992
2023-05-12T02:39:40.680Z,68.2792
2023-05-12T02:40:42.324Z,68.2695
2023-05-12T02:41:44.955Z,68.2713
2023-05-12T02:42:45.588Z,68.3511
2023-05-12T02:43:47.206Z,68.3730
2023-05-12T02:44:48.855Z,68.4135
2023-05-12T02:45:50.642Z,68.4981
2023-05-12T02:46:52.120Z,68.5409
2023-05-12T02:47:53.926Z,68.5349
2023-05-12T02:48:55.479Z,68.4199
2023-05-12T02:49:57.104Z,68.3480
2023-05-12T02:50:58.720Z,68.3911
2023-05-12T02:52:00.418Z,68.4060
2023-05-12T02:53:02.085Z,68.6017
2023-05-12T02:54:03.674Z,67.9447
2023-05-12T02:55:05.359Z,67.0041
2023-05-12T02:56:06.992Z,65.7666
2023-05-12T02:57:08.639Z,63.7648
2023-05-12T02:58:10.307Z,61.9397
2023-05-12T02:59:11.945Z,61.7416
2023-05-12T03:00:13.580Z,62.0027
2023-05-12T03:01:15.212Z,62.6200
2023-05-12T03:02:16.892Z,63.0756
2023-05-12T03:03:18.553Z,62.9763
2023-05-12T03:04:20.142Z,62.3548
2023-05-12T03:05:21.803Z,62.0602
2023-05-12T03:06:23.460Z,62.2208
2023-05-12T03:07:25.146Z,62.5844
2023-05-12T03:08:26.818Z,63.1183
2023-05-12T03:09:28.370Z,63.3573
2023-05-12T03:10:30.051Z,63.1167
2023-05-12T03:11:31.652Z,62.6875
2023-05-12T03:12:33.288Z,62.3233
2023-05-12T03:13:35.440Z,62.3482
2023-05-12T03:14:36.657Z,62.6712
2023-05-12T03:15:38.237Z,62.9653
2023-05-12T03:16:40.553Z,63.2020
2023-05-12T03:17:41.581Z,63.4394
2023-05-12T03:18:43.229Z,63.4259
2023-05-12T03:19:44.802Z,63.0601
2023-05-12T03:20:46.518Z,62.7490
2023-05-12T03:21:48.084Z,62.7015
2023-05-12T03:22:49.770Z,62.9461
2023-05-12T03:23:51.452Z,63.0814
2023-05-12T03:24:53.072Z,63.2131
2023-05-12T03:25:54.668Z,63.4860
2023-05-12T03:26:56.320Z,63.3480
2023-05-12T03:27:57.972Z,63.0435
2023-05-12T03:28:59.674Z,62.7414
2023-05-12T03:30:01.252Z,62.5796
2023-05-12T03:31:03.117Z,62.6432
2023-05-12T03:32:04.585Z,62.8526
2023-05-12T03:33:06.253Z,62.9917
2023-05-12T03:34:07.915Z,63.1253
2023-05-12T03:35:09.633Z,63.2271
2023-05-12T03:36:11.139Z,63.0491
2023-05-12T03:37:12.859Z,62.8667
2023-05-12T03:38:14.440Z,62.7675
2023-05-12T03:39:16.191Z,62.7473
2023-05-12T03:40:18.975Z,62.8333
2023-05-12T03:41:19.407Z,63.0293
2023-05-12T03:42:21.048Z,63.1364
2023-05-12T03:43:22.761Z,63.3350
2023-05-12T03:44:24.363Z,63.3664
2023-05-12T03:45:26.062Z,63.2512
2023-05-12T03:46:27.661Z,63.1539
2023-05-12T03:47:29.463Z,62.9596
2023-05-12T03:48:30.971Z,62.6936
2023-05-12T03:49:32.567Z,62.6661
2023-05-12T03:50:34.258Z,62.5093
2023-05-12T03:51:35.978Z,62.6870
2023-05-12T03:52:37.513Z,62.5593
2023-05-12T03:53:39.188Z,62.5306
2023-05-12T03:54:40.809Z,62.5531
2023-05-12T03:55:42.965Z,62.6049
2023-05-12T03:56:44.133Z,62.5623
2023-05-12T03:57:45.744Z,62.6789
2023-05-12T03:58:47.436Z,62.6106
2023-05-12T03:59:49.102Z,62.3584
2023-05-12T04:00:50.732Z,62.5387
2023-05-12T04:01:52.392Z,62.5334
2023-05-12T04:02:54.038Z,62.6168
2023-05-12T04:03:55.729Z,62.4575
2023-05-12T04:04:57.281Z,62.3000
2023-05-12T04:05:58.967Z,62.3848
2023-05-12T04:07:00.650Z,62.5145
2023-05-12T04:08:02.228Z,62.4971
2023-05-12T04:09:03.896Z,62.3461
2023-05-12T04:10:05.540Z,62.4125
2023-05-12T04:11:07.481Z,62.6022
2023-05-12T04:12:08.793Z,62.4965
2023-05-12T04:13:10.460Z,62.5226
2023-05-12T04:14:12.083Z,62.6414
2023-05-12T04:15:13.799Z,62.5419
2023-05-12T04:16:15.524Z,62.6191
2023-05-12T04:17:17.041Z,62.6313
2023-05-12T04:18:18.697Z,62.5517
2023-05-12T04:19:20.329Z,62.6122
2023-05-12T04:20:22.121Z,62.6808
2023-05-12T04:21:24.494Z,62.3436
2023-05-12T04:22:25.817Z,62.0620
2023-05-12T04:23:26.945Z,62.0881
2023-05-12T04:24:28.648Z,62.1366
2023-05-12T04:25:30.234Z,62.2000
2023-05-12T04:26:31.872Z,62.1956
2023-05-12T04:27:33.526Z,61.9487
2023-05-12T04:28:35.176Z,61.8837
2023-05-12T04:29:36.825Z,61.9303
2023-05-12T04:30:38.470Z,61.9720
2023-05-12T04:31:40.177Z,61.9651
2023-05-12T04:32:41.789Z,62.0673
2023-05-12T04:33:43.464Z,62.1068
2023-05-12T04:34:45.951Z,62.2543
2023-05-12T04:35:47.453Z,62.2871
2023-05-12T04:36:48.389Z,62.3079
2023-05-12T04:37:50.973Z,62.3100
2023-05-12T04:38:51.699Z,62.5159
2023-05-12T04:39:53.280Z,62.0145
2023-05-12T04:40:54.914Z,61.8402
2023-05-12T04:41:56.666Z,61.9697
2023-05-12T04:42:58.232Z,62.1716
2023-05-12T04:44:00.380Z,61.8583
2023-05-12T04:45:01.505Z,61.6340
2023-05-12T04:46:03.222Z,61.4809
2023-05-12T04:47:04.875Z,61.5227
2023-05-12T04:48:07.501Z,61.6786
2023-05-12T04:49:09.095Z,61.8162
2023-05-12T04:50:09.950Z,61.9741
2023-05-12T04:51:11.604Z,61.4559
2023-05-12T04:52:13.228Z,61.2063
2023-05-12T04:53:14.828Z,61.1969
2023-05-12T04:54:16.495Z,60.8996
2023-05-12T04:55:18.429Z,60.5360
2023-05-12T04:56:19.883Z,59.9331
2023-05-12T04:57:21.653Z,59.0858
2023-05-12T04:58:23.141Z,57.6126
2023-05-12T04:59:24.731Z,57.0878
2023-05-12T05:00:26.516Z,57.0693
2023-05-12T05:01:28.106Z,56.5931
2023-05-12T05:02:30.270Z,55.7663
2023-05-12T05:03:31.492Z,55.0561
2023-05-12T05:04:33.047Z,54.7584
2023-05-12T05:05:34.658Z,54.7213
2023-05-12T05:06:36.306Z,54.7344
2023-05-12T05:07:38.947Z,54.4858
2023-05-12T05:08:40.443Z,54.0025
2023-05-12T05:09:41.291Z,53.6761
2023-05-12T05:10:42.868Z,53.6565
2023-05-12T05:11:44.586Z,53.7764
2023-05-12T05:12:46.171Z,53.5633
2023-05-12T05:13:47.841Z,53.2896
2023-05-12T05:14:50.425Z,52.8252
2023-05-12T05:15:51.295Z,52.9328
2023-05-12T05:16:52.750Z,52.8566
2023-05-12T05:17:54.647Z,52.9425
2023-05-12T05:18:57.614Z,53.4819
2023-05-12T05:19:59.226Z,53.4883
2023-05-12T05:20:59.522Z,53.0243
2023-05-12T05:22:01.021Z,52.8622
2023-05-12T05:23:02.724Z,53.0974
2023-05-12T05:24:04.346Z,52.5643
2023-05-12T05:25:05.930Z,53.2548
2023-05-12T05:26:07.667Z,52.9858
2023-05-12T05:27:09.230Z,52.5860
2023-05-12T05:28:10.966Z,52.4334
2023-05-12T05:29:12.548Z,52.7627
2023-05-12T05:30:14.256Z,52.2340
2023-05-12T05:31:15.866Z,52.4474
2023-05-12T05:32:17.499Z,51.8927
2023-05-12T05:33:19.250Z,51.9162
2023-05-12T05:34:20.812Z,52.1920
2023-05-12T05:35:22.635Z,51.9534
2023-05-12T05:36:24.046Z,53.0980
2023-05-12T05:37:25.717Z,52.9522
2023-05-12T05:38:28.225Z,52.1436
2023-05-12T05:39:28.958Z,51.8143
2023-05-12T05:40:38.536Z,52.5081
2023-05-12T05:41:32.471Z,52.0791
2023-05-12T05:42:34.058Z,52.7039
2023-05-12T05:43:35.623Z,52.3349
2023-05-12T05:44:37.182Z,52.0364
2023-05-12T05:45:38.888Z,52.3345
2023-05-12T05:46:40.547Z,52.2317
2023-05-12T05:47:42.220Z,52.5566
2023-05-12T05:48:43.859Z,52.7866
2023-05-12T05:49:45.468Z,52.2633
2023-05-12T05:50:47.089Z,52.1386
2023-05-12T05:51:48.751Z,52.3599
2023-05-12T05:52:50.404Z,51.9186
2023-05-12T05:53:52.107Z,52.5241
2023-05-12T05:54:53.714Z,52.3755
2023-05-12T05:55:55.694Z,52.1569
2023-05-12T05:56:57.264Z,51.9388
2023-05-12T05:57:58.710Z,51.8187
2023-05-12T05:59:00.272Z,51.8371
2023-05-12T06:00:01.999Z,51.8287
2023-05-12T06:01:04.091Z,51.2896
2023-05-12T06:02:05.294Z,51.3473
2023-05-12T06:03:06.991Z,51.7627
2023-05-12T06:04:09.544Z,51.3112
2023-05-12T06:05:10.146Z,52.5275
2023-05-12T06:06:12.957Z,52.1546
2023-05-12T06:07:13.452Z,51.7258
2023-05-12T06:08:15.035Z,51.6671
2023-05-12T06:09:16.734Z,51.9804
2023-05-12T06:10:18.622Z,52.0338
2023-05-12T06:11:19.983Z,52.2784
2023-05-12T06:12:21.570Z,51.5783
2023-05-12T06:13:23.245Z,51.3385
2023-05-12T06:14:25.100Z,51.5081
2023-05-12T06:15:26.584Z,51.5438
2023-05-12T06:16:28.240Z,51.8302
2023-05-12T06:17:32.066Z,52.4556
2023-05-12T06:18:31.490Z,51.9563
2023-05-12T06:19:33.722Z,51.6275
2023-05-12T06:20:34.769Z,51.7120
2023-05-12T06:21:36.428Z,51.7736
2023-05-12T06:22:38.056Z,51.6324
2023-05-12T06:23:39.774Z,52.2316
2023-05-12T06:24:41.401Z,52.2213
2023-05-12T06:25:43.029Z,51.8752
2023-05-12T06:26:44.675Z,51.8177
2023-05-12T06:27:46.316Z,51.5722
2023-05-12T06:28:47.984Z,51.6909
2023-05-12T06:29:49.604Z,52.5166
2023-05-12T06:30:51.220Z,52.7992
2023-05-12T06:31:52.902Z,53.1199
2023-05-12T06:32:54.519Z,53.8501
2023-05-12T06:33:56.159Z,53.9365
2023-05-12T06:34:57.846Z,54.7774
2023-05-12T06:35:59.543Z,55.0712
2023-05-12T06:37:01.074Z,55.1935
2023-05-12T06:38:02.805Z,55.2542
2023-05-12T06:39:04.418Z,55.6075
2023-05-12T06:40:06.072Z,55.2560
2023-05-12T06:41:08.669Z,55.3315
2023-05-12T06:42:09.385Z,55.4037
2023-05-12T06:43:10.978Z,56.2256
2023-05-12T06:44:12.643Z,56.6319
2023-05-12T06:45:14.287Z,56.5128
2023-05-12T06:46:16.030Z,56.0825
2023-05-12T06:47:17.544Z,56.1524
2023-05-12T06:48:19.172Z,56.3608
2023-05-12T06:49:20.796Z,57.5785
2023-05-12T06:50:22.572Z,57.3064
2023-05-12T06:51:24.135Z,58.2941
2023-05-12T06:52:26.490Z,56.4000
2023-05-12T06:53:27.371Z,56.4812
2023-05-12T06:54:29.144Z,56.9098
2023-05-12T06:55:30.717Z,57.9099
2023-05-12T06:56:32.453Z,57.5954
2023-05-12T06:57:34.047Z,57.0611
2023-05-12T06:58:35.619Z,56.4344
2023-05-12T06:59:37.304Z,56.5815
2023-05-12T07:00:39.669Z,57.1298
2023-05-12T07:01:40.691Z,58.8858
2023-05-12T07:02:42.280Z,57.9958
2023-05-12T07:03:43.855Z,57.3526
2023-05-12T07:04:45.625Z,56.6267
2023-05-12T07:05:47.189Z,56.6331
2023-05-12T07:06:48.912Z,56.9310
2023-05-12T07:07:50.576Z,58.7135
2023-05-12T07:08:52.157Z,58.0981
2023-05-12T07:09:53.738Z,57.5264
2023-05-12T07:10:55.467Z,56.4360
2023-05-12T07:11:57.126Z,56.8402
2023-05-12T07:12:58.722Z,56.9778
2023-05-12T07:14:00.377Z,58.4246
2023-05-12T07:15:02.017Z,58.3204
2023-05-12T07:16:03.626Z,59.2177
2023-05-12T07:17:05.242Z,57.0816
2023-05-12T07:18:06.991Z,57.0923
2023-05-12T07:19:08.672Z,57.0962
2023-05-12T07:20:10.172Z,57.9062
2023-05-12T07:21:11.867Z,58.0282
2023-05-12T07:22:16.179Z,58.2779
2023-05-12T07:23:15.049Z,56.8605
2023-05-12T07:24:16.708Z,56.7936
2023-05-12T07:25:19.150Z,57.6919
2023-05-12T07:26:21.648Z,58.8105
2023-05-12T07:27:21.624Z,57.9495
2023-05-12T07:28:23.276Z,58.4625
2023-05-12T07:29:24.914Z,56.4606
2023-05-12T07:30:26.660Z,56.5549
2023-05-12T07:31:29.197Z,57.0654
2023-05-12T07:32:29.920Z,58.8403
2023-05-12T07:33:32.683Z,57.6122
2023-05-12T07:34:33.208Z,57.7915
2023-05-12T07:35:34.949Z,56.0037
2023-05-12T07:36:36.574Z,56.1504
2023-05-12T07:37:38.356Z,56.4067
2023-05-12T07:38:39.905Z,57.6375
2023-05-12T07:39:41.554Z,57.2293
2023-05-12T07:40:43.140Z,57.0796
2023-05-12T07:41:44.876Z,55.4955
2023-05-12T07:42:46.429Z,55.4337
2023-05-12T07:43:48.276Z,55.9806
2023-05-12T07:44:49.706Z,58.1333
2023-05-12T07:45:51.441Z,57.8045
2023-05-12T07:46:54.100Z,58.3423
2023-05-12T07:47:55.557Z,55.8118
2023-05-12T07:48:56.266Z,55.9244
2023-05-12T07:49:58.693Z,56.5806
2023-05-12T07:50:59.543Z,57.8086
2023-05-12T07:52:01.270Z,57.3553
2023-05-12T07:53:02.856Z,59.1019
2023-05-12T07:54:04.540Z,56.5361
2023-05-12T07:55:06.158Z,56.7856
2023-05-12T07:56:07.861Z,57.2446
2023-05-12T07:57:09.478Z,58.3909
2023-05-12T07:58:11.059Z,57.9001
2023-05-12T07:59:12.754Z,58.7433
2023-05-12T08:00:14.413Z,56.3916
2023-05-12T08:01:16.109Z,56.4520
2023-05-12T08:02:18.202Z,56.8094
2023-05-12T08:03:19.403Z,57.9286
2023-05-12T08:04:21.027Z,57.4570
2023-05-12T08:05:22.701Z,58.1374
2023-05-12T08:06:25.026Z,55.7997
2023-05-12T08:07:26.195Z,56.1592
2023-05-12T08:08:27.516Z,56.8894
2023-05-12T08:09:29.221Z,57.9515
2023-05-12T08:10:30.843Z,57.3064
2023-05-12T08:11:32.475Z,57.1355
2023-05-12T08:12:34.131Z,55.4827
2023-05-12T08:13:35.733Z,55.9278
2023-05-12T08:14:37.335Z,57.3560
2023-05-12T08:15:39.045Z,58.3046
2023-05-12T08:16:40.739Z,57.8044
2023-05-12T08:17:42.359Z,57.6446
2023-05-12T08:18:43.986Z,55.9971
2023-05-12T08:19:45.571Z,56.1030
2023-05-12T08:20:47.249Z,56.3694
2023-05-12T08:21:48.878Z,58.1496
2023-05-12T08:22:52.173Z,58.1387
2023-05-12T08:23:53.209Z,57.2127
2023-05-12T08:24:54.044Z,56.2039
2023-05-12T08:25:55.600Z,55.7443
2023-05-12T08:26:57.359Z,56.6785
2023-05-12T08:27:58.976Z,58.7521
2023-05-12T08:29:00.599Z,58.0474
2023-05-12T08:30:02.223Z,56.6661
2023-05-12T08:31:05.127Z,55.7519
2023-05-12T08:32:05.421Z,55.5950
2023-05-12T08:33:07.213Z,55.8421
2023-05-12T08:34:10.906Z,57.0247
2023-05-12T08:35:10.391Z,58.1822
2023-05-12T08:36:11.987Z,57.3979
2023-05-12T08:37:13.783Z,55.8273
2023-05-12T08:38:15.662Z,54.6622
2023-05-12T08:39:16.957Z,55.3321
2023-05-12T08:40:18.571Z,55.8955
2023-05-12T08:41:20.257Z,56.8832
2023-05-12T08:42:21.960Z,56.6627
2023-05-12T08:43:23.624Z,55.7160
2023-05-12T08:44:25.172Z,54.7271
2023-05-12T08:45:26.913Z,55.0788
2023-05-12T08:46:28.509Z,55.3600
2023-05-12T08:47:30.145Z,56.7831
2023-05-12T08:48:31.788Z,57.9793
2023-05-12T08:49:33.495Z,56.0986
2023-05-12T08:50:35.128Z,54.7384
2023-05-12T08:51:36.721Z,54.6905
2023-05-12T08:52:38.363Z,54.8909
2023-05-12T08:53:40.057Z,55.9090
2023-05-12T08:54:52.414Z,57.2166
2023-05-12T08:55:48.224Z,55.9609
2023-05-12T08:57:46.627Z,54.4276
2023-05-12T08:58:48.222Z,55.0888
2023-05-12T08:59:49.969Z,56.1655
2023-05-12T09:00:51.604Z,57.9616
2023-05-12T09:01:53.363Z,56.2156
2023-05-12T09:02:55.118Z,56.9157
2023-05-12T09:03:56.598Z,54.5115
2023-05-12T09:04:58.192Z,54.9495
2023-05-12T09:05:59.836Z,56.0652
2023-05-12T09:07:01.459Z,57.4890
2023-05-12T09:08:03.112Z,56.2257
2023-05-12T09:09:04.763Z,55.8384
2023-05-12T09:10:06.419Z,54.3973
2023-05-12T09:11:08.086Z,55.0648
2023-05-12T09:12:10.556Z,55.7100
2023-05-12T09:13:11.343Z,57.4181
2023-05-12T09:14:13.049Z,56.9915
2023-05-12T09:15:14.729Z,56.1587
2023-05-12T09:16:16.334Z,54.6781
2023-05-12T09:17:17.992Z,54.8539
2023-05-12T09:18:19.623Z,55.1022
2023-05-12T09:19:21.186Z,56.6268
2023-05-12T09:20:30.818Z,55.9713
2023-05-12T09:21:24.438Z,55.3514
2023-05-12T09:22:26.084Z,54.2053
2023-05-12T09:23:27.742Z,54.4246
2023-05-12T09:24:29.387Z,54.4753
2023-05-12T09:25:31.078Z,55.9510
2023-05-12T09:26:32.704Z,55.6982
2023-05-12T09:27:34.389Z,55.1612
2023-05-12T09:28:36.020Z,53.3541
2023-05-12T09:29:45.310Z,53.3594
2023-05-12T09:30:39.317Z,53.9527
2023-05-12T09:31:40.959Z,55.3331
2023-05-12T09:32:42.548Z,55.5746
2023-05-12T09:33:44.217Z,54.8666
2023-05-12T09:34:46.595Z,52.6982
2023-05-12T09:35:47.543Z,52.6170
2023-05-12T09:36:49.156Z,52.7873
2023-05-12T09:37:51.846Z,54.2522
2023-05-12T09:38:52.595Z,55.0406
2023-05-12T09:39:54.192Z,54.3171
2023-05-12T09:40:55.873Z,52.4261
2023-05-12T09:41:57.552Z,52.3754
2023-05-12T09:42:59.144Z,53.6134
2023-05-12T09:44:00.894Z,55.1687
2023-05-12T09:45:02.478Z,54.9417
2023-05-12T09:46:04.139Z,53.7374
2023-05-12T09:47:05.800Z,52.2352
2023-05-12T09:48:07.442Z,52.5392
2023-05-12T09:49:09.111Z,52.7452
2023-05-12T09:50:10.741Z,54.6260
2023-05-12T09:51:12.376Z,54.5375
2023-05-12T09:52:14.036Z,53.3183
2023-05-12T09:53:15.709Z,52.7599
2023-05-12T09:54:18.281Z,53.6629
2023-05-12T09:55:19.068Z,55.2101
2023-05-12T09:56:20.645Z,54.3215
2023-05-12T09:57:22.248Z,54.5226
2023-05-12T09:58:23.891Z,52.2760
2023-05-12T09:59:25.576Z,52.3213
2023-05-12T10:00:41.293Z,52.4444
2023-05-12T10:01:28.873Z,53.1921
2023-05-12T10:02:30.725Z,55.5392
2023-05-12T10:03:32.099Z,55.2016
2023-05-12T10:04:33.802Z,51.7591
2023-05-12T10:05:35.400Z,52.1029
2023-05-12T10:06:37.748Z,52.2480
2023-05-12T10:07:38.802Z,54.0201
2023-05-12T10:08:40.509Z,54.4832
2023-05-12T10:09:41.999Z,53.5445
2023-05-12T10:10:43.612Z,51.7571
2023-05-12T10:11:45.348Z,51.5187
2023-05-12T10:12:46.957Z,52.0383
2023-05-12T10:13:48.597Z,53.9489
2023-05-12T10:14:50.207Z,54.8935
2023-05-12T10:15:51.954Z,53.4424
2023-05-12T10:16:54.268Z,51.9060
2023-05-12T10:17:55.264Z,51.6841
2023-05-12T10:18:56.898Z,52.3259
2023-05-12T10:19:58.449Z,54.6609
2023-05-12T10:21:00.240Z,54.1796
2023-05-12T10:22:02.346Z,52.1582
2023-05-12T10:23:03.419Z,51.8249
2023-05-12T10:24:05.053Z,51.8794
2023-05-12T10:25:06.673Z,52.5342
2023-05-12T10:26:08.337Z,54.4381
2023-05-12T10:27:10.752Z,54.5507
2023-05-12T10:28:11.784Z,52.3304
2023-05-12T10:29:13.296Z,51.6614
2023-05-12T10:30:14.944Z,51.8193
2023-05-12T10:31:16.712Z,53.0789
2023-05-12T10:32:19.292Z,54.4033
2023-05-12T10:33:20.358Z,53.2734
2023-05-12T10:34:21.662Z,50.9515
2023-05-12T10:35:23.171Z,50.9741
2023-05-12T10:36:24.844Z,51.3442
2023-05-12T10:37:27.216Z,53.2171
2023-05-12T10:38:28.158Z,53.8256
2023-05-12T10:39:29.718Z,52.3986
2023-05-12T10:40:32.381Z,50.8918
2023-05-12T10:41:33.049Z,51.0954
2023-05-12T10:42:35.275Z,51.6487
2023-05-12T10:43:36.372Z,53.5471
2023-05-12T10:44:38.022Z,54.1881
2023-05-12T10:45:39.663Z,51.6290
2023-05-12T10:46:41.317Z,50.9768
2023-05-12T10:47:43.059Z,51.5696
2023-05-12T10:48:44.597Z,52.7453
2023-05-12T10:49:46.264Z,54.1158
2023-05-12T10:50:47.858Z,54.2171
2023-05-12T10:51:49.524Z,51.4544
2023-05-12T10:52:51.172Z,51.0284
2023-05-12T10:53:54.860Z,51.4395
2023-05-12T10:54:54.509Z,52.7080
2023-05-12T10:55:56.288Z,54.1174
2023-05-12T10:56:57.964Z,54.2442
2023-05-12T10:58:00.154Z,51.7074
2023-05-12T10:59:01.468Z,51.2415
2023-05-12T11:00:03.835Z,51.1869
2023-05-12T11:01:05.055Z,51.9704
2023-05-12T11:02:06.975Z,54.2163
2023-05-12T11:03:10.441Z,53.0470
2023-05-12T11:04:09.410Z,51.0615
2023-05-12T11:05:11.223Z,50.9791
2023-05-12T11:06:12.806Z,51.0918
2023-05-12T11:07:14.707Z,52.1765
2023-05-12T11:08:16.061Z,54.6170
2023-05-12T11:09:18.002Z,52.9121
2023-05-12T11:10:19.706Z,50.9069
2023-05-12T11:11:20.870Z,51.0144
2023-05-12T11:12:22.583Z,51.0616
2023-05-12T11:13:24.192Z,51.5122
2023-05-12T11:14:25.819Z,53.3377
2023-05-12T11:15:27.491Z,51.0510
2023-05-12T11:16:29.155Z,49.8077
2023-05-12T11:17:30.784Z,50.1905
2023-05-12T11:18:32.442Z,50.5639
2023-05-12T11:19:34.074Z,52.1047
2023-05-12T11:20:35.628Z,53.0167
2023-05-12T11:21:37.371Z,50.1973
2023-05-12T11:22:38.979Z,50.0033
2023-05-12T11:23:40.704Z,50.1115
2023-05-12T11:24:42.298Z,50.5709
2023-05-12T11:25:44.451Z,52.4326
2023-05-12T11:26:45.620Z,51.8947
2023-05-12T11:27:47.598Z,49.6949
2023-05-12T11:28:48.913Z,49.9363
2023-05-12T11:29:52.368Z,49.9426
2023-05-12T11:30:54.699Z,51.1966
2023-05-12T11:31:53.876Z,53.0669
2023-05-12T11:32:55.429Z,51.6671
2023-05-12T11:34:10.846Z,50.2842
2023-05-12T11:34:58.801Z,50.2026
2023-05-12T11:36:00.464Z,50.5327
2023-05-12T11:37:02.067Z,51.5020
2023-05-12T11:38:03.742Z,50.7546
2023-05-12T11:39:05.387Z,49.8884
2023-05-12T11:40:07.090Z,49.7196
2023-05-12T11:41:08.620Z,50.4145
2023-05-12T11:42:13.433Z,51.2362
2023-05-12T11:43:12.047Z,52.7945
2023-05-12T11:44:13.663Z,53.8333
2023-05-12T11:45:15.254Z,50.9544
2023-05-12T11:46:17.011Z,50.1780
2023-05-12T11:47:18.588Z,51.0375
2023-05-12T11:48:20.339Z,52.2087
2023-05-12T11:49:22.293Z,53.2445
2023-05-12T11:50:23.568Z,54.6584
2023-05-12T11:51:25.120Z,51.6371
2023-05-12T11:52:26.806Z,52.3680
2023-05-12T11:53:28.499Z,53.1526
2023-05-12T11:54:30.148Z,53.6455
2023-05-12T11:55:31.720Z,55.1441
2023-05-12T11:56:33.429Z,55.5533
2023-05-12T11:57:35.756Z,52.4662
2023-05-12T11:58:36.683Z,53.3939
2023-05-12T11:59:38.797Z,54.0295
2023-05-12T12:00:40.052Z,55.0283
2023-05-12T12:01:41.609Z,56.8339
2023-05-12T12:02:43.471Z,54.3589
2023-05-12T12:03:45.037Z,52.2730
2023-05-12T12:04:46.641Z,53.4476
2023-05-12T12:05:48.194Z,53.7202
2023-05-12T12:06:49.893Z,54.7790
2023-05-12T12:07:51.491Z,56.4505
2023-05-12T12:08:53.130Z,53.0544
2023-05-12T12:09:54.821Z,52.1278
2023-05-12T12:10:57.273Z,53.1639
2023-05-12T12:11:58.104Z,54.0893
2023-05-12T12:13:00.289Z,55.5115
2023-05-12T12:14:01.416Z,55.5872
2023-05-12T12:15:04.018Z,52.1775
2023-05-12T12:16:05.635Z,52.4366
2023-05-12T12:17:06.338Z,53.2787
2023-05-12T12:18:08.099Z,54.1974
2023-05-12T12:19:09.813Z,56.3597
2023-05-12T12:20:11.384Z,55.4407
2023-05-12T12:21:12.953Z,51.7275
2023-05-12T12:22:14.581Z,52.6102
2023-05-12T12:23:16.169Z,53.0894
2023-05-12T12:24:18.772Z,53.8533
2023-05-12T12:25:19.822Z,55.5985
2023-05-12T12:26:21.176Z,53.0783